sensor_id;sensor_type;location;lat;lon;timestamp;P1;durP1;ratioP1;P2;durP2;ratioP2
34060;SDS011;20336;-33.424;-70.638;2023-11-19T00:02:01;4.55;;;2.38;;
34060;SDS011;20336;-33.424;-70.638;2023-11-19T00:04:28;5.40;;;2.28;;
34060;SDS011;20336;-33.424;-70.638;2023-11-19T00:06:55;7.20;;;2.42;;
34060;SDS011;20336;-33.424;-70.638;2023-11-19T00:09:28;4.18;;;2.20;;
34060;SDS011;20336;-33.424;-70.638;2023-11-19T00:11:55;11.25;;;2.58;;
34060;SDS011;20336;-33.424;-70.638;2023-11-19T00:14:21;5.93;;;2.30;;
34060;SDS011;20336;-33.424;-70.638;2023-11-19T00:16:49;6.63;;;2.58;;
34060;SDS011;20336;-33.424;-70.638;2023-11-19T00:19:16;6.72;;;2.65;;
34060;SDS011;20336;-33.424;-70.638;2023-11-19T00:21:43;7.22;;;2.72;;
34060;SDS011;20336;-33.424;-70.638;2023-11-19T00:24:11;5.18;;;2.70;;
34060;SDS011;20336;-33.424;-70.638;2023-11-19T00:26:38;9.23;;;2.83;;
34060;SDS011;20336;-33.424;-70.638;2023-11-19T00:29:05;7.60;;;3.45;;
34060;SDS011;20336;-33.424;-70.638;2023-11-19T00:31:32;12.52;;;3.20;;
34060;SDS011;20336;-33.424;-70.638;2023-11-19T00:33:59;4.85;;;2.60;;
34060;SDS011;20336;-33.424;-70.638;2023-11-19T00:36:27;7.32;;;3.20;;
34060;SDS011;20336;-33.424;-70.638;2023-11-19T00:38:54;10.90;;;2.97;;
34060;SDS011;20336;-33.424;-70.638;2023-11-19T00:41:22;9.32;;;3.35;;
34060;SDS011;20336;-33.424;-70.638;2023-11-19T00:43:49;5.65;;;2.85;;
34060;SDS011;20336;-33.424;-70.638;2023-11-19T00:46:16;6.72;;;3.17;;
34060;SDS011;20336;-33.424;-70.638;2023-11-19T00:48:43;8.02;;;3.28;;
34060;SDS011;20336;-33.424;-70.638;2023-11-19T00:51:11;6.22;;;2.88;;
34060;SDS011;20336;-33.424;-70.638;2023-11-19T00:53:38;5.50;;;3.05;;
34060;SDS011;20336;-33.424;-70.638;2023-11-19T00:56:05;11.05;;;3.03;;
34060;SDS011;20336;-33.424;-70.638;2023-11-19T00:58:32;11.48;;;3.03;;
34060;SDS011;20336;-33.424;-70.638;2023-11-19T01:00:59;5.47;;;2.92;;
34060;SDS011;20336;-33.424;-70.638;2023-11-19T01:03:26;8.00;;;3.05;;
34060;SDS011;20336;-33.424;-70.638;2023-11-19T01:05:53;8.55;;;3.20;;
34060;SDS011;20336;-33.424;-70.638;2023-11-19T01:08:20;7.47;;;3.20;;
34060;SDS011;20336;-33.424;-70.638;2023-11-19T01:10:50;6.35;;;3.40;;
34060;SDS011;20336;-33.424;-70.638;2023-11-19T01:13:17;4.97;;;3.10;;
34060;SDS011;20336;-33.424;-70.638;2023-11-19T01:15:44;7.47;;;4.00;;
34060;SDS011;20336;-33.424;-70.638;2023-11-19T01:18:10;7.53;;;3.88;;
34060;SDS011;20336;-33.424;-70.638;2023-11-19T01:20:38;11.80;;;5.07;;
34060;SDS011;20336;-33.424;-70.638;2023-11-19T01:23:05;8.48;;;5.25;;
34060;SDS011;20336;-33.424;-70.638;2023-11-19T01:25:33;11.98;;;5.20;;
34060;SDS011;20336;-33.424;-70.638;2023-11-19T01:28:01;13.95;;;7.07;;
34060;SDS011;20336;-33.424;-70.638;2023-11-19T01:30:28;12.90;;;6.22;;
34060;SDS011;20336;-33.424;-70.638;2023-11-19T01:32:55;14.50;;;7.00;;
34060;SDS011;20336;-33.424;-70.638;2023-11-19T01:35:22;18.95;;;8.23;;
34060;SDS011;20336;-33.424;-70.638;2023-11-19T01:37:48;20.45;;;9.15;;
34060;SDS011;20336;-33.424;-70.638;2023-11-19T01:40:19;15.23;;;8.30;;
34060;SDS011;20336;-33.424;-70.638;2023-11-19T01:42:46;16.38;;;8.27;;
34060;SDS011;20336;-33.424;-70.638;2023-11-19T01:45:21;12.57;;;7.13;;
34060;SDS011;20336;-33.424;-70.638;2023-11-19T01:47:49;14.65;;;6.97;;
34060;SDS011;20336;-33.424;-70.638;2023-11-19T01:50:17;11.73;;;6.45;;
34060;SDS011;20336;-33.424;-70.638;2023-11-19T01:52:45;15.90;;;6.65;;
34060;SDS011;20336;-33.424;-70.638;2023-11-19T01:55:12;12.25;;;6.20;;
34060;SDS011;20336;-33.424;-70.638;2023-11-19T01:57:39;12.57;;;5.68;;
34060;SDS011;20336;-33.424;-70.638;2023-11-19T02:00:07;15.93;;;5.97;;
34060;SDS011;20336;-33.424;-70.638;2023-11-19T02:02:37;11.55;;;6.47;;
34060;SDS011;20336;-33.424;-70.638;2023-11-19T02:05:05;10.43;;;6.22;;
34060;SDS011;20336;-33.424;-70.638;2023-11-19T02:07:32;11.50;;;6.45;;
34060;SDS011;20336;-33.424;-70.638;2023-11-19T02:09:59;15.35;;;6.45;;
34060;SDS011;20336;-33.424;-70.638;2023-11-19T02:12:28;10.77;;;6.53;;
34060;SDS011;20336;-33.424;-70.638;2023-11-19T02:14:59;15.45;;;6.85;;
34060;SDS011;20336;-33.424;-70.638;2023-11-19T02:17:28;11.73;;;6.50;;
34060;SDS011;20336;-33.424;-70.638;2023-11-19T02:19:57;9.07;;;5.95;;
34060;SDS011;20336;-33.424;-70.638;2023-11-19T02:22:24;11.88;;;5.47;;
34060;SDS011;20336;-33.424;-70.638;2023-11-19T02:24:51;9.55;;;5.55;;
34060;SDS011;20336;-33.424;-70.638;2023-11-19T02:29:52;8.52;;;4.72;;
34060;SDS011;20336;-33.424;-70.638;2023-11-19T02:32:19;11.73;;;4.72;;
34060;SDS011;20336;-33.424;-70.638;2023-11-19T02:34:46;10.38;;;4.60;;
34060;SDS011;20336;-33.424;-70.638;2023-11-19T02:37:13;8.90;;;4.57;;
34060;SDS011;20336;-33.424;-70.638;2023-11-19T02:39:40;10.18;;;4.57;;
34060;SDS011;20336;-33.424;-70.638;2023-11-19T02:42:07;9.65;;;4.63;;
34060;SDS011;20336;-33.424;-70.638;2023-11-19T02:44:34;9.18;;;4.43;;
34060;SDS011;20336;-33.424;-70.638;2023-11-19T02:47:01;8.05;;;3.90;;
34060;SDS011;20336;-33.424;-70.638;2023-11-19T02:49:28;9.02;;;3.90;;
34060;SDS011;20336;-33.424;-70.638;2023-11-19T02:51:55;8.80;;;4.40;;
34060;SDS011;20336;-33.424;-70.638;2023-11-19T02:54:24;7.78;;;3.90;;
34060;SDS011;20336;-33.424;-70.638;2023-11-19T02:56:52;9.23;;;4.03;;
34060;SDS011;20336;-33.424;-70.638;2023-11-19T02:59:25;10.00;;;4.60;;
34060;SDS011;20336;-33.424;-70.638;2023-11-19T03:02:04;11.20;;;5.03;;
34060;SDS011;20336;-33.424;-70.638;2023-11-19T03:04:38;9.18;;;4.65;;
34060;SDS011;20336;-33.424;-70.638;2023-11-19T03:07:11;12.75;;;4.45;;
34060;SDS011;20336;-33.424;-70.638;2023-11-19T03:09:38;12.60;;;4.25;;
34060;SDS011;20336;-33.424;-70.638;2023-11-19T03:12:06;8.43;;;4.93;;
34060;SDS011;20336;-33.424;-70.638;2023-11-19T03:14:36;8.95;;;4.55;;
34060;SDS011;20336;-33.424;-70.638;2023-11-19T03:17:03;12.43;;;5.47;;
34060;SDS011;20336;-33.424;-70.638;2023-11-19T03:19:30;15.00;;;5.03;;
34060;SDS011;20336;-33.424;-70.638;2023-11-19T03:21:58;10.35;;;5.13;;
34060;SDS011;20336;-33.424;-70.638;2023-11-19T03:24:26;12.07;;;5.25;;
34060;SDS011;20336;-33.424;-70.638;2023-11-19T03:26:53;14.00;;;5.82;;
34060;SDS011;20336;-33.424;-70.638;2023-11-19T03:29:23;9.77;;;4.82;;
34060;SDS011;20336;-33.424;-70.638;2023-11-19T03:31:51;9.02;;;4.80;;
34060;SDS011;20336;-33.424;-70.638;2023-11-19T03:34:18;10.05;;;4.88;;
34060;SDS011;20336;-33.424;-70.638;2023-11-19T03:36:45;9.10;;;4.90;;
34060;SDS011;20336;-33.424;-70.638;2023-11-19T03:39:12;10.80;;;4.88;;
34060;SDS011;20336;-33.424;-70.638;2023-11-19T03:41:39;9.73;;;4.97;;
34060;SDS011;20336;-33.424;-70.638;2023-11-19T03:44:06;8.55;;;5.07;;
34060;SDS011;20336;-33.424;-70.638;2023-11-19T03:46:33;9.73;;;4.28;;
34060;SDS011;20336;-33.424;-70.638;2023-11-19T03:49:01;8.18;;;4.22;;
34060;SDS011;20336;-33.424;-70.638;2023-11-19T03:51:29;11.10;;;4.50;;
34060;SDS011;20336;-33.424;-70.638;2023-11-19T03:53:57;8.65;;;4.20;;
34060;SDS011;20336;-33.424;-70.638;2023-11-19T03:56:24;9.77;;;4.60;;
34060;SDS011;20336;-33.424;-70.638;2023-11-19T03:58:52;8.18;;;5.00;;
34060;SDS011;20336;-33.424;-70.638;2023-11-19T04:01:19;9.13;;;4.95;;
34060;SDS011;20336;-33.424;-70.638;2023-11-19T04:03:46;9.35;;;5.53;;
34060;SDS011;20336;-33.424;-70.638;2023-11-19T04:06:13;10.10;;;5.87;;
34060;SDS011;20336;-33.424;-70.638;2023-11-19T04:08:40;11.30;;;6.07;;
34060;SDS011;20336;-33.424;-70.638;2023-11-19T04:11:07;14.23;;;6.27;;
34060;SDS011;20336;-33.424;-70.638;2023-11-19T04:13:34;11.23;;;5.88;;
34060;SDS011;20336;-33.424;-70.638;2023-11-19T04:16:01;8.67;;;5.47;;
34060;SDS011;20336;-33.424;-70.638;2023-11-19T04:18:28;10.77;;;5.80;;
34060;SDS011;20336;-33.424;-70.638;2023-11-19T04:20:55;11.27;;;6.33;;
34060;SDS011;20336;-33.424;-70.638;2023-11-19T04:23:22;9.97;;;6.13;;
34060;SDS011;20336;-33.424;-70.638;2023-11-19T04:25:50;12.67;;;6.23;;
34060;SDS011;20336;-33.424;-70.638;2023-11-19T04:28:17;10.87;;;5.67;;
34060;SDS011;20336;-33.424;-70.638;2023-11-19T04:30:44;14.33;;;6.40;;
34060;SDS011;20336;-33.424;-70.638;2023-11-19T04:33:11;13.83;;;5.87;;
34060;SDS011;20336;-33.424;-70.638;2023-11-19T04:35:38;8.13;;;5.70;;
34060;SDS011;20336;-33.424;-70.638;2023-11-19T04:38:05;13.90;;;5.97;;
34060;SDS011;20336;-33.424;-70.638;2023-11-19T04:40:32;11.80;;;6.17;;
34060;SDS011;20336;-33.424;-70.638;2023-11-19T04:42:59;11.20;;;6.57;;
34060;SDS011;20336;-33.424;-70.638;2023-11-19T04:45:26;10.17;;;5.90;;
34060;SDS011;20336;-33.424;-70.638;2023-11-19T04:47:53;9.17;;;5.87;;
34060;SDS011;20336;-33.424;-70.638;2023-11-19T04:50:20;11.37;;;6.53;;
34060;SDS011;20336;-33.424;-70.638;2023-11-19T04:52:47;13.73;;;6.37;;
34060;SDS011;20336;-33.424;-70.638;2023-11-19T04:55:14;11.17;;;6.70;;
34060;SDS011;20336;-33.424;-70.638;2023-11-19T04:57:41;16.63;;;7.40;;
34060;SDS011;20336;-33.424;-70.638;2023-11-19T05:00:08;10.77;;;6.73;;
34060;SDS011;20336;-33.424;-70.638;2023-11-19T05:02:36;13.00;;;6.67;;
34060;SDS011;20336;-33.424;-70.638;2023-11-19T05:05:03;11.87;;;6.50;;
34060;SDS011;20336;-33.424;-70.638;2023-11-19T05:07:31;10.60;;;6.63;;
34060;SDS011;20336;-33.424;-70.638;2023-11-19T05:09:58;11.80;;;6.63;;
34060;SDS011;20336;-33.424;-70.638;2023-11-19T05:12:25;13.17;;;6.40;;
34060;SDS011;20336;-33.424;-70.638;2023-11-19T05:14:52;14.03;;;6.80;;
34060;SDS011;20336;-33.424;-70.638;2023-11-19T05:17:19;13.90;;;6.53;;
34060;SDS011;20336;-33.424;-70.638;2023-11-19T05:19:46;11.67;;;6.50;;
34060;SDS011;20336;-33.424;-70.638;2023-11-19T05:22:13;11.10;;;6.13;;
34060;SDS011;20336;-33.424;-70.638;2023-11-19T05:24:40;8.97;;;6.10;;
34060;SDS011;20336;-33.424;-70.638;2023-11-19T05:27:07;11.53;;;6.33;;
34060;SDS011;20336;-33.424;-70.638;2023-11-19T05:29:36;13.73;;;6.23;;
34060;SDS011;20336;-33.424;-70.638;2023-11-19T05:32:08;8.70;;;5.87;;
34060;SDS011;20336;-33.424;-70.638;2023-11-19T05:34:35;8.97;;;5.47;;
34060;SDS011;20336;-33.424;-70.638;2023-11-19T05:37:02;9.27;;;5.80;;
34060;SDS011;20336;-33.424;-70.638;2023-11-19T05:39:31;12.70;;;5.50;;
34060;SDS011;20336;-33.424;-70.638;2023-11-19T05:41:58;11.43;;;6.00;;
34060;SDS011;20336;-33.424;-70.638;2023-11-19T05:44:24;11.13;;;5.77;;
34060;SDS011;20336;-33.424;-70.638;2023-11-19T05:46:51;11.50;;;6.37;;
34060;SDS011;20336;-33.424;-70.638;2023-11-19T05:49:18;10.80;;;6.03;;
34060;SDS011;20336;-33.424;-70.638;2023-11-19T05:51:45;10.03;;;5.90;;
34060;SDS011;20336;-33.424;-70.638;2023-11-19T05:54:12;8.77;;;5.60;;
34060;SDS011;20336;-33.424;-70.638;2023-11-19T05:56:39;9.27;;;5.30;;
34060;SDS011;20336;-33.424;-70.638;2023-11-19T05:59:07;9.97;;;4.90;;
34060;SDS011;20336;-33.424;-70.638;2023-11-19T06:01:40;9.67;;;5.67;;
34060;SDS011;20336;-33.424;-70.638;2023-11-19T06:04:07;11.47;;;6.37;;
34060;SDS011;20336;-33.424;-70.638;2023-11-19T06:06:34;11.67;;;5.60;;
34060;SDS011;20336;-33.424;-70.638;2023-11-19T06:09:01;10.20;;;6.20;;
34060;SDS011;20336;-33.424;-70.638;2023-11-19T06:11:28;9.60;;;5.23;;
34060;SDS011;20336;-33.424;-70.638;2023-11-19T06:13:55;11.50;;;5.30;;
34060;SDS011;20336;-33.424;-70.638;2023-11-19T06:16:22;15.30;;;6.20;;
34060;SDS011;20336;-33.424;-70.638;2023-11-19T06:18:49;8.50;;;5.20;;
34060;SDS011;20336;-33.424;-70.638;2023-11-19T06:21:16;11.33;;;6.53;;
34060;SDS011;20336;-33.424;-70.638;2023-11-19T06:23:43;13.43;;;6.40;;
34060;SDS011;20336;-33.424;-70.638;2023-11-19T06:26:10;8.93;;;6.10;;
34060;SDS011;20336;-33.424;-70.638;2023-11-19T06:28:37;9.80;;;5.47;;
34060;SDS011;20336;-33.424;-70.638;2023-11-19T06:31:04;13.03;;;6.47;;
34060;SDS011;20336;-33.424;-70.638;2023-11-19T06:33:31;11.30;;;6.63;;
34060;SDS011;20336;-33.424;-70.638;2023-11-19T06:35:59;9.97;;;6.10;;
34060;SDS011;20336;-33.424;-70.638;2023-11-19T06:38:26;11.87;;;5.97;;
34060;SDS011;20336;-33.424;-70.638;2023-11-19T06:40:53;8.23;;;5.27;;
34060;SDS011;20336;-33.424;-70.638;2023-11-19T06:43:19;8.70;;;5.50;;
34060;SDS011;20336;-33.424;-70.638;2023-11-19T06:45:47;7.40;;;4.87;;
34060;SDS011;20336;-33.424;-70.638;2023-11-19T06:48:14;10.43;;;5.40;;
34060;SDS011;20336;-33.424;-70.638;2023-11-19T06:50:41;9.87;;;5.57;;
34060;SDS011;20336;-33.424;-70.638;2023-11-19T06:53:08;11.13;;;5.20;;
34060;SDS011;20336;-33.424;-70.638;2023-11-19T06:55:36;8.67;;;5.43;;
34060;SDS011;20336;-33.424;-70.638;2023-11-19T06:58:02;8.70;;;5.07;;
34060;SDS011;20336;-33.424;-70.638;2023-11-19T07:00:29;11.70;;;6.00;;
34060;SDS011;20336;-33.424;-70.638;2023-11-19T07:02:58;16.03;;;6.57;;
34060;SDS011;20336;-33.424;-70.638;2023-11-19T07:05:25;11.97;;;7.53;;
34060;SDS011;20336;-33.424;-70.638;2023-11-19T07:07:52;14.07;;;8.47;;
34060;SDS011;20336;-33.424;-70.638;2023-11-19T07:10:20;14.30;;;7.77;;
34060;SDS011;20336;-33.424;-70.638;2023-11-19T07:12:47;13.63;;;7.47;;
34060;SDS011;20336;-33.424;-70.638;2023-11-19T07:15:15;14.93;;;8.53;;
34060;SDS011;20336;-33.424;-70.638;2023-11-19T07:17:43;14.37;;;8.77;;
34060;SDS011;20336;-33.424;-70.638;2023-11-19T07:20:10;14.50;;;8.10;;
34060;SDS011;20336;-33.424;-70.638;2023-11-19T07:22:43;16.13;;;8.23;;
34060;SDS011;20336;-33.424;-70.638;2023-11-19T07:25:14;17.20;;;7.87;;
34060;SDS011;20336;-33.424;-70.638;2023-11-19T07:27:41;16.97;;;8.80;;
34060;SDS011;20336;-33.424;-70.638;2023-11-19T07:30:08;19.20;;;9.07;;
34060;SDS011;20336;-33.424;-70.638;2023-11-19T07:32:35;13.90;;;7.97;;
34060;SDS011;20336;-33.424;-70.638;2023-11-19T07:35:04;21.30;;;8.63;;
34060;SDS011;20336;-33.424;-70.638;2023-11-19T07:37:31;16.63;;;9.00;;
34060;SDS011;20336;-33.424;-70.638;2023-11-19T07:39:58;13.47;;;8.03;;
34060;SDS011;20336;-33.424;-70.638;2023-11-19T07:42:25;19.90;;;9.63;;
34060;SDS011;20336;-33.424;-70.638;2023-11-19T07:44:52;17.00;;;8.67;;
34060;SDS011;20336;-33.424;-70.638;2023-11-19T07:47:21;12.93;;;7.80;;
34060;SDS011;20336;-33.424;-70.638;2023-11-19T07:49:50;14.00;;;8.67;;
34060;SDS011;20336;-33.424;-70.638;2023-11-19T07:52:16;14.93;;;8.83;;
34060;SDS011;20336;-33.424;-70.638;2023-11-19T07:54:43;14.83;;;8.27;;
34060;SDS011;20336;-33.424;-70.638;2023-11-19T07:57:10;15.73;;;8.00;;
34060;SDS011;20336;-33.424;-70.638;2023-11-19T07:59:37;16.20;;;8.00;;
34060;SDS011;20336;-33.424;-70.638;2023-11-19T08:02:05;13.17;;;7.53;;
34060;SDS011;20336;-33.424;-70.638;2023-11-19T08:04:32;13.00;;;7.33;;
34060;SDS011;20336;-33.424;-70.638;2023-11-19T08:07:00;13.87;;;8.03;;
34060;SDS011;20336;-33.424;-70.638;2023-11-19T08:09:27;14.53;;;7.63;;
34060;SDS011;20336;-33.424;-70.638;2023-11-19T08:11:54;14.90;;;8.10;;
34060;SDS011;20336;-33.424;-70.638;2023-11-19T08:14:21;15.10;;;8.77;;
34060;SDS011;20336;-33.424;-70.638;2023-11-19T08:16:49;14.93;;;8.40;;
34060;SDS011;20336;-33.424;-70.638;2023-11-19T08:19:16;17.67;;;8.77;;
34060;SDS011;20336;-33.424;-70.638;2023-11-19T08:21:43;15.43;;;8.23;;
34060;SDS011;20336;-33.424;-70.638;2023-11-19T08:24:10;16.50;;;8.47;;
34060;SDS011;20336;-33.424;-70.638;2023-11-19T08:26:37;14.63;;;7.70;;
34060;SDS011;20336;-33.424;-70.638;2023-11-19T08:29:04;14.27;;;7.53;;
34060;SDS011;20336;-33.424;-70.638;2023-11-19T08:31:31;20.73;;;8.23;;
34060;SDS011;20336;-33.424;-70.638;2023-11-19T08:33:58;15.40;;;7.50;;
34060;SDS011;20336;-33.424;-70.638;2023-11-19T08:36:25;17.53;;;8.13;;
34060;SDS011;20336;-33.424;-70.638;2023-11-19T08:38:53;11.33;;;6.63;;
34060;SDS011;20336;-33.424;-70.638;2023-11-19T08:41:21;14.77;;;7.90;;
34060;SDS011;20336;-33.424;-70.638;2023-11-19T08:43:48;23.10;;;7.70;;
34060;SDS011;20336;-33.424;-70.638;2023-11-19T08:46:15;12.37;;;7.27;;
34060;SDS011;20336;-33.424;-70.638;2023-11-19T08:48:42;13.53;;;6.80;;
34060;SDS011;20336;-33.424;-70.638;2023-11-19T08:51:09;13.03;;;7.67;;
34060;SDS011;20336;-33.424;-70.638;2023-11-19T08:53:36;13.13;;;6.83;;
34060;SDS011;20336;-33.424;-70.638;2023-11-19T08:56:03;16.57;;;7.63;;
34060;SDS011;20336;-33.424;-70.638;2023-11-19T08:58:30;13.97;;;7.93;;
34060;SDS011;20336;-33.424;-70.638;2023-11-19T09:00:57;18.77;;;8.83;;
34060;SDS011;20336;-33.424;-70.638;2023-11-19T09:03:24;18.83;;;10.00;;
34060;SDS011;20336;-33.424;-70.638;2023-11-19T09:05:55;16.13;;;8.67;;
34060;SDS011;20336;-33.424;-70.638;2023-11-19T09:08:22;19.63;;;9.97;;
34060;SDS011;20336;-33.424;-70.638;2023-11-19T09:10:49;16.60;;;9.77;;
34060;SDS011;20336;-33.424;-70.638;2023-11-19T09:13:16;24.23;;;10.17;;
34060;SDS011;20336;-33.424;-70.638;2023-11-19T09:15:43;19.83;;;9.50;;
34060;SDS011;20336;-33.424;-70.638;2023-11-19T09:18:10;15.97;;;8.97;;
34060;SDS011;20336;-33.424;-70.638;2023-11-19T09:20:37;17.37;;;9.87;;
34060;SDS011;20336;-33.424;-70.638;2023-11-19T09:23:05;15.63;;;8.90;;
34060;SDS011;20336;-33.424;-70.638;2023-11-19T09:25:32;20.83;;;10.80;;
34060;SDS011;20336;-33.424;-70.638;2023-11-19T09:27:59;16.83;;;9.93;;
34060;SDS011;20336;-33.424;-70.638;2023-11-19T09:30:26;20.90;;;10.97;;
34060;SDS011;20336;-33.424;-70.638;2023-11-19T09:32:53;19.20;;;10.83;;
34060;SDS011;20336;-33.424;-70.638;2023-11-19T09:35:20;23.33;;;11.50;;
34060;SDS011;20336;-33.424;-70.638;2023-11-19T09:37:47;20.73;;;10.80;;
34060;SDS011;20336;-33.424;-70.638;2023-11-19T09:40:14;26.33;;;10.80;;
34060;SDS011;20336;-33.424;-70.638;2023-11-19T09:42:43;23.00;;;10.73;;
34060;SDS011;20336;-33.424;-70.638;2023-11-19T09:45:15;20.00;;;10.63;;
34060;SDS011;20336;-33.424;-70.638;2023-11-19T09:47:43;21.07;;;10.20;;
34060;SDS011;20336;-33.424;-70.638;2023-11-19T09:50:18;19.67;;;10.17;;
34060;SDS011;20336;-33.424;-70.638;2023-11-19T09:52:46;21.97;;;10.50;;
34060;SDS011;20336;-33.424;-70.638;2023-11-19T09:55:13;23.47;;;11.47;;
34060;SDS011;20336;-33.424;-70.638;2023-11-19T09:57:40;20.53;;;10.47;;
34060;SDS011;20336;-33.424;-70.638;2023-11-19T10:00:09;23.53;;;11.30;;
34060;SDS011;20336;-33.424;-70.638;2023-11-19T10:02:37;17.10;;;9.57;;
34060;SDS011;20336;-33.424;-70.638;2023-11-19T10:05:08;17.17;;;9.93;;
34060;SDS011;20336;-33.424;-70.638;2023-11-19T10:07:35;23.67;;;10.90;;
34060;SDS011;20336;-33.424;-70.638;2023-11-19T10:10:04;18.43;;;10.03;;
34060;SDS011;20336;-33.424;-70.638;2023-11-19T10:12:31;20.13;;;9.73;;
34060;SDS011;20336;-33.424;-70.638;2023-11-19T10:14:58;18.83;;;10.27;;
34060;SDS011;20336;-33.424;-70.638;2023-11-19T10:17:28;18.90;;;10.07;;
34060;SDS011;20336;-33.424;-70.638;2023-11-19T10:19:55;27.57;;;12.00;;
34060;SDS011;20336;-33.424;-70.638;2023-11-19T10:22:23;22.00;;;10.03;;
34060;SDS011;20336;-33.424;-70.638;2023-11-19T10:24:50;19.20;;;9.60;;
34060;SDS011;20336;-33.424;-70.638;2023-11-19T10:27:17;20.27;;;10.77;;
34060;SDS011;20336;-33.424;-70.638;2023-11-19T10:29:47;19.60;;;10.30;;
34060;SDS011;20336;-33.424;-70.638;2023-11-19T10:32:14;20.57;;;10.03;;
34060;SDS011;20336;-33.424;-70.638;2023-11-19T10:34:41;26.43;;;11.50;;
34060;SDS011;20336;-33.424;-70.638;2023-11-19T10:37:08;20.40;;;10.37;;
34060;SDS011;20336;-33.424;-70.638;2023-11-19T10:39:54;19.67;;;10.27;;
34060;SDS011;20336;-33.424;-70.638;2023-11-19T10:42:21;19.40;;;9.90;;
34060;SDS011;20336;-33.424;-70.638;2023-11-19T10:44:48;19.50;;;10.17;;
34060;SDS011;20336;-33.424;-70.638;2023-11-19T10:47:16;20.23;;;8.70;;
34060;SDS011;20336;-33.424;-70.638;2023-11-19T10:49:46;20.97;;;10.20;;
34060;SDS011;20336;-33.424;-70.638;2023-11-19T10:52:14;20.17;;;10.17;;
34060;SDS011;20336;-33.424;-70.638;2023-11-19T10:54:46;17.13;;;9.03;;
34060;SDS011;20336;-33.424;-70.638;2023-11-19T10:57:19;18.83;;;9.13;;
34060;SDS011;20336;-33.424;-70.638;2023-11-19T10:59:47;20.33;;;9.10;;
34060;SDS011;20336;-33.424;-70.638;2023-11-19T11:02:16;17.97;;;9.20;;
34060;SDS011;20336;-33.424;-70.638;2023-11-19T11:04:45;26.57;;;10.07;;
34060;SDS011;20336;-33.424;-70.638;2023-11-19T11:07:13;19.90;;;9.73;;
34060;SDS011;20336;-33.424;-70.638;2023-11-19T11:09:41;16.23;;;9.10;;
34060;SDS011;20336;-33.424;-70.638;2023-11-19T11:12:09;16.17;;;8.80;;
34060;SDS011;20336;-33.424;-70.638;2023-11-19T11:14:37;18.77;;;9.00;;
34060;SDS011;20336;-33.424;-70.638;2023-11-19T11:17:05;14.50;;;8.40;;
34060;SDS011;20336;-33.424;-70.638;2023-11-19T11:19:34;18.97;;;9.73;;
34060;SDS011;20336;-33.424;-70.638;2023-11-19T11:22:03;21.07;;;9.50;;
34060;SDS011;20336;-33.424;-70.638;2023-11-19T11:24:38;19.60;;;9.40;;
34060;SDS011;20336;-33.424;-70.638;2023-11-19T11:27:26;19.97;;;9.90;;
34060;SDS011;20336;-33.424;-70.638;2023-11-19T11:32:40;20.17;;;10.23;;
34060;SDS011;20336;-33.424;-70.638;2023-11-19T11:38:03;15.90;;;9.73;;
34060;SDS011;20336;-33.424;-70.638;2023-11-19T11:40:30;19.93;;;10.50;;
34060;SDS011;20336;-33.424;-70.638;2023-11-19T11:42:57;20.35;;;11.75;;
34060;SDS011;20336;-33.424;-70.638;2023-11-19T11:45:35;20.67;;;12.18;;
34060;SDS011;20336;-33.424;-70.638;2023-11-19T11:48:09;22.90;;;13.27;;
34060;SDS011;20336;-33.424;-70.638;2023-11-19T11:50:52;31.02;;;16.13;;
34060;SDS011;20336;-33.424;-70.638;2023-11-19T11:53:20;31.75;;;15.98;;
34060;SDS011;20336;-33.424;-70.638;2023-11-19T11:58:27;30.73;;;16.90;;
34060;SDS011;20336;-33.424;-70.638;2023-11-19T12:00:57;23.40;;;13.82;;
34060;SDS011;20336;-33.424;-70.638;2023-11-19T12:03:26;34.83;;;19.42;;
34060;SDS011;20336;-33.424;-70.638;2023-11-19T12:05:53;25.52;;;14.35;;
34060;SDS011;20336;-33.424;-70.638;2023-11-19T12:08:24;24.83;;;14.77;;
34060;SDS011;20336;-33.424;-70.638;2023-11-19T12:10:51;34.10;;;19.42;;
34060;SDS011;20336;-33.424;-70.638;2023-11-19T12:13:20;25.63;;;14.15;;
34060;SDS011;20336;-33.424;-70.638;2023-11-19T12:18:26;25.08;;;13.75;;
34060;SDS011;20336;-33.424;-70.638;2023-11-19T12:20:54;26.60;;;15.45;;
34060;SDS011;20336;-33.424;-70.638;2023-11-19T12:23:21;32.22;;;18.98;;
34060;SDS011;20336;-33.424;-70.638;2023-11-19T12:25:49;26.33;;;15.43;;
34060;SDS011;20336;-33.424;-70.638;2023-11-19T12:28:16;33.22;;;18.75;;
34060;SDS011;20336;-33.424;-70.638;2023-11-19T12:30:43;28.52;;;16.77;;
34060;SDS011;20336;-33.424;-70.638;2023-11-19T12:33:10;28.50;;;15.25;;
34060;SDS011;20336;-33.424;-70.638;2023-11-19T12:35:41;23.55;;;14.93;;
34060;SDS011;20336;-33.424;-70.638;2023-11-19T12:38:18;22.88;;;13.48;;
34060;SDS011;20336;-33.424;-70.638;2023-11-19T12:40:46;24.83;;;14.38;;
34060;SDS011;20336;-33.424;-70.638;2023-11-19T12:43:22;26.00;;;14.63;;
34060;SDS011;20336;-33.424;-70.638;2023-11-19T12:45:49;27.70;;;14.52;;
34060;SDS011;20336;-33.424;-70.638;2023-11-19T12:48:16;22.13;;;13.93;;
34060;SDS011;20336;-33.424;-70.638;2023-11-19T12:50:53;26.25;;;14.35;;
34060;SDS011;20336;-33.424;-70.638;2023-11-19T12:53:25;23.80;;;14.30;;
34060;SDS011;20336;-33.424;-70.638;2023-11-19T12:55:53;28.35;;;15.48;;
34060;SDS011;20336;-33.424;-70.638;2023-11-19T12:58:35;24.42;;;14.60;;
34060;SDS011;20336;-33.424;-70.638;2023-11-19T13:01:05;22.85;;;14.05;;
34060;SDS011;20336;-33.424;-70.638;2023-11-19T13:03:33;21.08;;;13.85;;
34060;SDS011;20336;-33.424;-70.638;2023-11-19T13:06:04;30.42;;;15.00;;
34060;SDS011;20336;-33.424;-70.638;2023-11-19T13:08:42;27.95;;;14.40;;
34060;SDS011;20336;-33.424;-70.638;2023-11-19T13:11:32;23.77;;;14.13;;
34060;SDS011;20336;-33.424;-70.638;2023-11-19T13:14:00;27.77;;;15.73;;
34060;SDS011;20336;-33.424;-70.638;2023-11-19T13:16:29;27.83;;;15.90;;
34060;SDS011;20336;-33.424;-70.638;2023-11-19T13:18:57;25.48;;;14.93;;
34060;SDS011;20336;-33.424;-70.638;2023-11-19T13:21:25;29.00;;;16.88;;
34060;SDS011;20336;-33.424;-70.638;2023-11-19T13:23:52;30.63;;;16.65;;
34060;SDS011;20336;-33.424;-70.638;2023-11-19T13:26:19;27.58;;;16.10;;
34060;SDS011;20336;-33.424;-70.638;2023-11-19T13:28:46;38.25;;;16.13;;
34060;SDS011;20336;-33.424;-70.638;2023-11-19T13:31:13;24.67;;;15.30;;
34060;SDS011;20336;-33.424;-70.638;2023-11-19T13:33:40;27.17;;;15.23;;
34060;SDS011;20336;-33.424;-70.638;2023-11-19T13:36:07;28.60;;;17.07;;
34060;SDS011;20336;-33.424;-70.638;2023-11-19T13:38:35;26.90;;;16.40;;
34060;SDS011;20336;-33.424;-70.638;2023-11-19T13:41:02;27.73;;;16.48;;
34060;SDS011;20336;-33.424;-70.638;2023-11-19T13:43:34;30.88;;;16.65;;
34060;SDS011;20336;-33.424;-70.638;2023-11-19T13:46:01;31.67;;;18.10;;
34060;SDS011;20336;-33.424;-70.638;2023-11-19T13:48:28;30.85;;;17.40;;
34060;SDS011;20336;-33.424;-70.638;2023-11-19T13:50:55;33.47;;;19.33;;
34060;SDS011;20336;-33.424;-70.638;2023-11-19T13:53:22;32.50;;;18.25;;
34060;SDS011;20336;-33.424;-70.638;2023-11-19T13:55:49;41.83;;;20.98;;
34060;SDS011;20336;-33.424;-70.638;2023-11-19T13:58:16;36.78;;;19.70;;
34060;SDS011;20336;-33.424;-70.638;2023-11-19T14:00:43;44.05;;;19.63;;
34060;SDS011;20336;-33.424;-70.638;2023-11-19T14:03:10;38.42;;;20.35;;
34060;SDS011;20336;-33.424;-70.638;2023-11-19T14:05:37;40.92;;;19.60;;
34060;SDS011;20336;-33.424;-70.638;2023-11-19T14:08:06;37.40;;;19.67;;
34060;SDS011;20336;-33.424;-70.638;2023-11-19T14:10:40;38.63;;;19.98;;
34060;SDS011;20336;-33.424;-70.638;2023-11-19T14:13:07;40.33;;;20.70;;
34060;SDS011;20336;-33.424;-70.638;2023-11-19T14:15:34;43.90;;;21.88;;